createdAt,value
2022-08-19T00:01:38.259Z,13.52
2022-08-19T00:04:08.825Z,14.25
2022-08-19T00:06:37.536Z,13.57
2022-08-19T00:09:07.367Z,16.98
2022-08-19T00:11:35.563Z,12.75
2022-08-19T00:14:03.615Z,11.55
2022-08-19T00:16:30.909Z,14.35
2022-08-19T00:18:59.851Z,13.85
2022-08-19T00:21:27.961Z,13.05
2022-08-19T00:23:59.067Z,12.60
2022-08-19T00:26:27.653Z,11.90
2022-08-19T00:28:55.603Z,13.30
2022-08-19T00:31:26.522Z,11.95
2022-08-19T00:33:55.616Z,10.55
2022-08-19T00:36:25.687Z,11.80
2022-08-19T00:38:54.584Z,9.82
2022-08-19T00:41:22.756Z,11.02
2022-08-19T00:44:13.512Z,10.15
2022-08-19T00:46:42.101Z,10.10
2022-08-19T00:49:31.111Z,15.02
2022-08-19T00:52:03.081Z,8.80
2022-08-19T00:54:32.401Z,9.48
2022-08-19T00:57:00.325Z,8.77
2022-08-19T01:00:00.516Z,8.40
2022-08-19T01:02:18.339Z,8.57
2022-08-19T01:04:47.169Z,8.95
2022-08-19T01:07:15.252Z,8.82
2022-08-19T01:09:47.079Z,8.60
2022-08-19T01:12:14.151Z,8.57
2022-08-19T01:14:41.255Z,7.93
2022-08-19T01:17:11.119Z,7.22
2022-08-19T01:19:43.626Z,7.32
2022-08-19T01:22:26.459Z,7.75
2022-08-19T01:24:56.509Z,7.65
2022-08-19T01:27:23.742Z,8.02
2022-08-19T01:29:52.369Z,7.53
2022-08-19T01:32:33.866Z,7.70
2022-08-19T01:35:02.861Z,6.43
2022-08-19T01:37:31.290Z,7.28
2022-08-19T01:39:59.127Z,8.63
2022-08-19T01:42:28.151Z,7.53
2022-08-19T01:44:57.858Z,7.07
2022-08-19T01:47:25.696Z,6.05
2022-08-19T01:49:52.360Z,8.88
2022-08-19T01:52:19.151Z,6.88
2022-08-19T01:54:45.958Z,6.25
2022-08-19T01:57:13.927Z,7.63
2022-08-19T01:59:42.314Z,7.05
2022-08-19T02:02:11.388Z,9.25
2022-08-19T02:04:41.139Z,7.65
2022-08-19T02:07:11.730Z,5.15
2022-08-19T02:09:39.712Z,8.05
2022-08-19T02:12:08.803Z,5.40
2022-08-19T02:14:37.321Z,7.00
2022-08-19T02:17:04.979Z,6.13
2022-08-19T02:19:33.551Z,7.65
2022-08-19T02:22:02.229Z,6.63
2022-08-19T02:24:32.174Z,6.60
2022-08-19T02:27:00.366Z,4.30
2022-08-19T02:29:28.628Z,4.90
2022-08-19T02:31:57.898Z,7.78
2022-08-19T02:34:26.000Z,9.40
2022-08-19T02:36:53.476Z,6.25
2022-08-19T02:39:21.756Z,6.30
2022-08-19T02:41:50.420Z,4.53
2022-08-19T02:44:29.362Z,6.22
2022-08-19T02:46:58.221Z,5.03
2022-08-19T02:49:24.912Z,4.93
2022-08-19T02:51:51.916Z,5.97
2022-08-19T02:54:18.599Z,6.35
2022-08-19T02:56:46.204Z,6.88
2022-08-19T02:59:13.276Z,5.10
2022-08-19T03:01:43.334Z,5.18
2022-08-19T03:04:16.466Z,6.00
2022-08-19T03:06:45.843Z,8.23
2022-08-19T03:09:13.269Z,5.88
2022-08-19T03:11:40.172Z,7.35
2022-08-19T03:14:08.540Z,7.32
2022-08-19T03:16:42.792Z,7.60
2022-08-19T03:19:09.864Z,7.25
2022-08-19T03:21:37.499Z,8.20
2022-08-19T03:24:07.406Z,7.53
2022-08-19T03:26:35.418Z,7.40
2022-08-19T03:29:05.516Z,8.23
2022-08-19T03:31:42.147Z,7.47
2022-08-19T03:34:20.898Z,8.70
2022-08-19T03:36:48.152Z,7.93
2022-08-19T03:39:15.212Z,9.35
2022-08-19T03:41:46.286Z,7.57
2022-08-19T03:44:21.543Z,7.13
2022-08-19T03:46:58.503Z,8.35
2022-08-19T03:49:29.809Z,10.88
2022-08-19T03:51:58.284Z,9.48
2022-08-19T03:54:26.140Z,10.73
2022-08-19T03:56:55.701Z,9.07
2022-08-19T03:59:26.832Z,9.40
2022-08-19T04:01:56.306Z,10.68
2022-08-19T04:04:24.971Z,12.02
2022-08-19T04:06:58.019Z,10.80
2022-08-19T04:09:26.731Z,10.50
2022-08-19T04:11:56.677Z,11.48
2022-08-19T04:14:26.189Z,10.73
2022-08-19T04:16:55.131Z,13.90
2022-08-19T04:19:23.907Z,12.07
2022-08-19T04:21:54.296Z,10.80
2022-08-19T04:24:23.140Z,13.45
2022-08-19T04:26:51.307Z,12.50
2022-08-19T04:29:22.809Z,14.82
2022-08-19T04:31:50.388Z,16.33
2022-08-19T04:34:22.986Z,15.05
2022-08-19T04:36:53.239Z,14.18
2022-08-19T04:39:48.495Z,14.52
2022-08-19T04:42:35.475Z,13.63
2022-08-19T04:45:05.519Z,14.45
2022-08-19T04:47:47.819Z,14.93
2022-08-19T04:50:27.068Z,14.75
2022-08-19T04:52:54.320Z,15.13
2022-08-19T04:55:21.359Z,13.88
2022-08-19T04:57:49.848Z,13.30
2022-08-19T05:00:18.520Z,14.20
2022-08-19T05:02:47.086Z,14.32
2022-08-19T05:05:15.828Z,14.65
2022-08-19T05:07:43.155Z,16.60
2022-08-19T05:10:10.503Z,18.48
2022-08-19T05:12:37.981Z,15.65
2022-08-19T05:15:06.751Z,16.65
2022-08-19T05:17:38.090Z,16.52
2022-08-19T05:20:26.919Z,16.52
2022-08-19T05:22:53.922Z,17.20
2022-08-19T05:25:22.485Z,17.05
2022-08-19T05:27:50.627Z,17.20
2022-08-19T05:30:17.645Z,17.75
2022-08-19T05:32:44.307Z,18.50
2022-08-19T05:35:12.468Z,17.80
2022-08-19T05:37:41.342Z,16.55
2022-08-19T05:40:10.299Z,18.45
2022-08-19T05:42:38.511Z,18.70
2022-08-19T05:45:07.416Z,18.35
2022-08-19T05:47:36.019Z,18.85
2022-08-19T05:50:09.065Z,16.70
2022-08-19T05:52:39.056Z,17.70
2022-08-19T05:55:11.942Z,16.02
2022-08-19T05:57:39.870Z,19.02
2022-08-19T06:00:12.519Z,20.55
2022-08-19T06:02:43.356Z,18.63
2022-08-19T06:05:11.060Z,17.35
2022-08-19T06:07:40.508Z,20.25
2022-08-19T06:10:11.673Z,19.65
2022-08-19T06:12:40.057Z,21.02
2022-08-19T06:15:11.300Z,22.92
2022-08-19T06:17:40.294Z,22.33
2022-08-19T06:20:14.439Z,23.63
2022-08-19T06:22:46.433Z,20.95
2022-08-19T06:25:15.210Z,20.58
2022-08-19T06:28:14.646Z,21.15
2022-08-19T06:30:30.595Z,22.48
2022-08-19T06:32:57.727Z,22.38
2022-08-19T06:35:24.899Z,23.27
2022-08-19T06:37:53.608Z,23.92
2022-08-19T06:40:20.435Z,20.85
2022-08-19T06:42:54.089Z,22.02
2022-08-19T06:45:24.567Z,22.80
2022-08-19T06:47:55.279Z,21.67
2022-08-19T06:50:25.754Z,21.35
2022-08-19T06:52:52.538Z,22.88
2022-08-19T06:55:20.043Z,21.17
2022-08-19T06:57:49.281Z,22.58
2022-08-19T07:00:16.875Z,25.08
2022-08-19T07:02:49.820Z,23.30
2022-08-19T07:05:23.705Z,22.02
2022-08-19T07:07:51.011Z,24.73
2022-08-19T07:10:18.150Z,26.00
2022-08-19T07:12:45.533Z,22.48
2022-08-19T07:15:12.927Z,20.48
2022-08-19T07:17:41.792Z,23.02
2022-08-19T07:20:11.269Z,25.75
2022-08-19T07:22:40.224Z,23.48
2022-08-19T07:25:08.765Z,26.15
2022-08-19T07:27:36.715Z,24.25
2022-08-19T07:30:06.038Z,24.50
2022-08-19T07:32:32.759Z,28.48
2022-08-19T07:35:01.668Z,25.58
2022-08-19T07:37:33.044Z,25.65
2022-08-19T07:40:02.353Z,24.27
2022-08-19T07:42:31.795Z,26.27
2022-08-19T07:44:59.701Z,26.90
2022-08-19T07:47:49.333Z,25.23
2022-08-19T07:50:16.480Z,24.67
2022-08-19T07:52:45.365Z,29.17
2022-08-19T07:55:41.183Z,26.42
2022-08-19T07:58:06.179Z,22.90
2022-08-19T08:00:33.765Z,25.42
2022-08-19T08:03:02.073Z,24.73
2022-08-19T08:05:48.928Z,26.98
2022-08-19T08:08:44.382Z,26.08
2022-08-19T08:11:20.089Z,25.48
2022-08-19T08:14:00.561Z,25.42
2022-08-19T08:19:25.451Z,28.67
2022-08-19T08:21:56.879Z,25.45
2022-08-19T08:24:28.695Z,25.13
2022-08-19T08:27:01.156Z,25.55
2022-08-19T08:29:35.061Z,24.02
2022-08-19T08:32:04.540Z,29.92
2022-08-19T08:34:43.747Z,29.48
2022-08-19T08:37:10.514Z,28.13
2022-08-19T08:39:37.222Z,28.63
2022-08-19T08:42:16.875Z,27.65
2022-08-19T08:47:21.663Z,32.22
2022-08-19T08:49:52.830Z,28.52
2022-08-19T08:52:31.971Z,28.20
2022-08-19T08:55:02.291Z,29.90
2022-08-19T08:57:40.863Z,32.63
2022-08-19T09:00:15.390Z,35.83
2022-08-19T09:02:50.589Z,31.85
2022-08-19T09:05:26.024Z,31.95
2022-08-19T09:08:06.294Z,34.60
2022-08-19T09:10:45.045Z,30.55
2022-08-19T09:13:57.369Z,29.23
2022-08-19T09:16:28.283Z,30.67
2022-08-19T09:19:07.049Z,29.00
2022-08-19T09:21:39.475Z,28.67
2022-08-19T09:24:07.535Z,28.17
2022-08-19T09:26:47.601Z,30.00
2022-08-19T09:29:19.547Z,30.05
2022-08-19T09:31:50.932Z,28.80
2022-08-19T09:34:22.212Z,29.10
2022-08-19T09:36:55.449Z,33.10
2022-08-19T09:39:22.821Z,29.65
2022-08-19T09:41:50.966Z,29.77
2022-08-19T09:44:19.046Z,31.48
2022-08-19T09:46:49.958Z,29.52
2022-08-19T09:49:18.594Z,31.02
2022-08-19T09:51:51.152Z,29.20
2022-08-19T09:54:23.702Z,32.95
2022-08-19T09:56:53.609Z,29.95
2022-08-19T09:59:23.798Z,26.75
2022-08-19T10:01:52.707Z,30.23
2022-08-19T10:04:25.401Z,28.17
2022-08-19T10:06:56.387Z,30.27
2022-08-19T10:09:34.295Z,31.50
2022-08-19T10:12:03.843Z,26.70
2022-08-19T10:14:33.740Z,30.48
2022-08-19T10:17:04.726Z,33.83
2022-08-19T10:19:55.682Z,29.35
2022-08-19T10:22:26.393Z,31.42
2022-08-19T10:24:55.185Z,31.00
2022-08-19T10:27:22.668Z,29.67
2022-08-19T10:29:52.823Z,31.55
2022-08-19T10:32:33.681Z,29.55
2022-08-19T10:35:08.846Z,30.15
2022-08-19T10:37:37.957Z,29.08
2022-08-19T10:40:27.154Z,30.23
2022-08-19T10:42:57.103Z,30.48
2022-08-19T10:45:26.908Z,31.77
2022-08-19T10:47:56.804Z,32.17
2022-08-19T10:50:43.236Z,29.17
2022-08-19T10:53:10.210Z,26.63
2022-08-19T10:55:57.343Z,26.70
2022-08-19T10:58:25.897Z,26.48
2022-08-19T11:00:58.181Z,25.95
2022-08-19T11:03:31.564Z,22.17
2022-08-19T11:06:06.255Z,19.10
2022-08-19T11:08:35.861Z,20.13
2022-08-19T11:11:04.697Z,14.95
2022-08-19T11:13:36.229Z,13.60
2022-08-19T11:16:09.407Z,12.25
2022-08-19T11:18:38.407Z,11.73
2022-08-19T11:21:10.430Z,10.43
2022-08-19T11:23:37.161Z,9.35
2022-08-19T11:26:05.344Z,8.60
2022-08-19T11:28:33.223Z,6.57
2022-08-19T11:30:59.941Z,5.97
2022-08-19T11:33:27.361Z,5.95
2022-08-19T11:35:55.500Z,5.80
2022-08-19T11:38:23.827Z,4.68
2022-08-19T11:41:01.317Z,4.40
2022-08-19T11:43:31.579Z,4.85
2022-08-19T11:46:07.857Z,3.80
2022-08-19T11:48:36.538Z,4.70
2022-08-19T11:51:10.354Z,3.92
2022-08-19T11:53:38.686Z,3.53
2022-08-19T11:56:06.722Z,2.58
2022-08-19T11:58:35.082Z,3.22
2022-08-19T12:01:03.626Z,3.17
2022-08-19T12:03:34.263Z,4.80
2022-08-19T12:06:06.870Z,3.72
2022-08-19T12:08:34.132Z,3.30
2022-08-19T12:11:02.359Z,4.07
2022-08-19T12:13:31.459Z,2.92
2022-08-19T12:16:01.407Z,3.38
2022-08-19T12:18:29.226Z,4.55
2022-08-19T12:20:57.607Z,5.07
2022-08-19T12:23:26.937Z,4.93
2022-08-19T12:25:55.621Z,5.20
2022-08-19T12:28:24.971Z,4.80
2022-08-19T12:30:52.403Z,5.78
2022-08-19T12:33:24.467Z,6.40
2022-08-19T12:35:53.284Z,6.55
2022-08-19T12:38:25.598Z,7.38
2022-08-19T12:40:55.150Z,7.22
2022-08-19T12:43:24.242Z,6.78
2022-08-19T12:45:51.553Z,6.00
2022-08-19T12:48:33.770Z,5.88
2022-08-19T12:51:08.227Z,7.20
2022-08-19T12:53:35.330Z,4.43
2022-08-19T12:56:07.634Z,4.55
2022-08-19T12:58:48.920Z,4.60
2022-08-19T13:01:22.926Z,4.25
2022-08-19T13:03:55.050Z,4.30
2022-08-19T13:06:22.500Z,3.67
2022-08-19T13:08:50.723Z,3.30
2022-08-19T13:11:20.418Z,3.95
2022-08-19T13:13:49.241Z,4.47
2022-08-19T13:16:16.593Z,5.00
2022-08-19T13:18:45.586Z,5.25
2022-08-19T13:21:13.985Z,6.07
2022-08-19T13:23:41.849Z,5.45
2022-08-19T13:26:09.861Z,6.97
2022-08-19T13:28:55.101Z,8.88
2022-08-19T13:34:09.840Z,8.13
2022-08-19T13:36:37.342Z,6.82
2022-08-19T13:39:08.551Z,5.88
2022-08-19T13:41:36.130Z,6.18
2022-08-19T13:44:04.125Z,5.93
2022-08-19T13:46:31.465Z,5.53
2022-08-19T13:48:59.133Z,5.55
2022-08-19T13:51:26.339Z,6.13
2022-08-19T13:53:52.948Z,6.55
2022-08-19T13:56:26.104Z,6.30
2022-08-19T13:58:54.375Z,6.75
2022-08-19T14:01:25.508Z,7.68
2022-08-19T14:03:56.894Z,7.30
2022-08-19T14:06:24.700Z,8.68
2022-08-19T14:08:56.469Z,8.52
2022-08-19T14:11:24.112Z,10.32
2022-08-19T14:13:52.417Z,9.07
2022-08-19T14:16:19.449Z,11.63
2022-08-19T14:18:47.279Z,10.38
2022-08-19T14:21:18.420Z,10.32
2022-08-19T14:23:47.284Z,8.20
2022-08-19T14:26:17.991Z,10.32
2022-08-19T14:28:45.821Z,11.20
2022-08-19T14:31:19.273Z,11.60
2022-08-19T14:33:48.472Z,13.07
2022-08-19T14:36:16.043Z,12.57
2022-08-19T14:38:49.826Z,13.50
2022-08-19T14:41:22.498Z,15.05
2022-08-19T14:43:52.763Z,14.15
2022-08-19T14:46:24.107Z,15.30
2022-08-19T14:48:53.605Z,15.07
2022-08-19T14:51:22.161Z,15.40
2022-08-19T14:53:49.801Z,13.07
2022-08-19T14:56:22.107Z,15.05
2022-08-19T14:58:52.478Z,16.08
2022-08-19T15:01:23.895Z,19.23
2022-08-19T15:03:53.903Z,18.42
2022-08-19T15:06:22.124Z,16.00
2022-08-19T15:08:49.002Z,17.48
2022-08-19T15:11:17.457Z,15.40
2022-08-19T15:13:45.624Z,16.02
2022-08-19T15:16:18.149Z,16.63
2022-08-19T15:18:47.663Z,14.35
2022-08-19T15:21:17.467Z,17.60
2022-08-19T15:23:55.794Z,16.45
2022-08-19T15:26:22.589Z,14.43
2022-08-19T15:28:49.757Z,13.80
2022-08-19T15:31:27.964Z,11.57
2022-08-19T15:34:00.653Z,11.32
2022-08-19T15:36:28.324Z,11.73
2022-08-19T15:39:00.044Z,10.88
2022-08-19T15:41:30.484Z,11.10
2022-08-19T15:44:04.849Z,9.95
2022-08-19T15:46:33.504Z,8.93
2022-08-19T15:49:00.652Z,9.00
2022-08-19T15:51:30.718Z,9.63
2022-08-19T15:53:58.643Z,8.48
2022-08-19T15:56:27.630Z,7.80
2022-08-19T15:59:14.599Z,8.25
2022-08-19T16:02:01.548Z,8.63
2022-08-19T16:04:49.465Z,7.05
2022-08-19T16:07:22.355Z,6.30
2022-08-19T16:09:50.632Z,6.65
2022-08-19T16:12:18.987Z,7.03
2022-08-19T16:14:49.557Z,6.45
2022-08-19T16:17:17.523Z,7.10
2022-08-19T16:19:50.840Z,5.50
2022-08-19T16:22:29.926Z,4.60
2022-08-19T16:24:57.849Z,4.65
2022-08-19T16:27:25.575Z,4.32
2022-08-19T16:29:55.694Z,3.17
2022-08-19T16:32:23.727Z,3.30
2022-08-19T16:34:52.016Z,4.32
2022-08-19T16:37:21.741Z,2.88
2022-08-19T16:39:49.884Z,3.88
2022-08-19T16:42:18.868Z,3.22
2022-08-19T16:44:46.912Z,6.53
2022-08-19T16:47:16.831Z,6.13
2022-08-19T16:49:53.267Z,3.30
2022-08-19T16:52:26.224Z,5.50
2022-08-19T16:54:54.733Z,4.60
2022-08-19T16:57:23.927Z,4.30
2022-08-19T16:59:52.374Z,4.88
2022-08-19T17:02:23.339Z,4.78
2022-08-19T17:04:58.487Z,5.28
2022-08-19T17:07:27.768Z,4.90
2022-08-19T17:09:56.746Z,5.05
2022-08-19T17:12:30.579Z,6.60
2022-08-19T17:15:01.112Z,5.35
2022-08-19T17:17:29.521Z,5.40
2022-08-19T17:19:57.713Z,5.93
2022-08-19T17:22:25.922Z,4.60
2022-08-19T17:24:52.733Z,4.40
2022-08-19T17:27:23.166Z,5.07
2022-08-19T17:29:49.929Z,5.15
2022-08-19T17:32:17.008Z,6.18
2022-08-19T17:34:54.178Z,5.20
2022-08-19T17:37:21.654Z,4.60
2022-08-19T17:39:48.351Z,5.10
2022-08-19T17:42:16.273Z,5.07
2022-08-19T17:44:50.719Z,7.88
2022-08-19T17:47:19.537Z,6.55
2022-08-19T17:49:46.350Z,6.10
2022-08-19T17:52:14.134Z,6.43
2022-08-19T17:54:41.385Z,7.65
2022-08-19T17:57:09.569Z,6.88
2022-08-19T17:59:38.060Z,7.55
2022-08-19T18:02:10.136Z,7.15
2022-08-19T18:04:38.890Z,9.30
2022-08-19T18:07:09.326Z,8.65
2022-08-19T18:09:42.504Z,8.65
2022-08-19T18:12:12.402Z,9.00
2022-08-19T18:14:41.690Z,8.73
2022-08-19T18:17:13.815Z,9.02
2022-08-19T18:19:43.393Z,8.93
2022-08-19T18:22:31.237Z,8.43
2022-08-19T18:25:01.893Z,9.13
2022-08-19T18:27:33.759Z,11.85
2022-08-19T18:30:06.141Z,10.73
2022-08-19T18:32:34.258Z,10.27
2022-08-19T18:35:12.059Z,12.05
2022-08-19T18:37:43.723Z,12.02
2022-08-19T18:40:37.012Z,12.02
2022-08-19T18:43:12.391Z,10.52
2022-08-19T18:46:03.094Z,11.80
2022-08-19T18:48:49.387Z,9.65
2022-08-19T18:51:18.291Z,9.18
2022-08-19T18:53:47.345Z,8.75
2022-08-19T18:56:17.096Z,10.40
2022-08-19T18:58:44.598Z,9.90
2022-08-19T19:01:22.664Z,8.50
2022-08-19T19:03:53.868Z,12.20
2022-08-19T19:06:28.860Z,8.45
2022-08-19T19:08:57.394Z,8.23
2022-08-19T19:11:31.343Z,9.10
2022-08-19T19:13:58.253Z,9.30
2022-08-19T19:16:25.998Z,9.48
2022-08-19T19:18:53.973Z,9.48
2022-08-19T19:21:23.120Z,10.13
2022-08-19T19:23:50.367Z,10.57
2022-08-19T19:26:17.628Z,8.48
2022-08-19T19:28:47.998Z,9.48
2022-08-19T19:31:26.452Z,10.93
2022-08-19T19:33:54.423Z,8.55
2022-08-19T19:36:22.823Z,9.07
2022-08-19T19:38:50.031Z,8.68
2022-08-19T19:41:24.502Z,9.45
2022-08-19T19:44:10.002Z,7.60
2022-08-19T19:46:45.194Z,9.20
2022-08-19T19:49:12.041Z,9.30
2022-08-19T19:51:39.424Z,9.30
2022-08-19T19:54:09.082Z,9.50
2022-08-19T19:56:35.967Z,8.05
2022-08-19T19:59:04.446Z,8.48
2022-08-19T20:01:37.615Z,9.15
2022-08-19T20:04:08.006Z,7.90
2022-08-19T20:06:36.772Z,7.90
2022-08-19T20:09:10.764Z,9.45
2022-08-19T20:11:53.697Z,7.30
2022-08-19T20:14:27.690Z,8.15
2022-08-19T20:16:55.998Z,8.25
2022-08-19T20:19:28.013Z,9.07
2022-08-19T20:21:57.285Z,10.20
2022-08-19T20:24:28.553Z,7.40
2022-08-19T20:26:57.924Z,8.90
2022-08-19T20:29:38.811Z,11.77
2022-08-19T20:32:10.009Z,8.40
2022-08-19T20:34:39.840Z,11.25
2022-08-19T20:37:09.435Z,9.65
2022-08-19T20:39:38.037Z,9.10
2022-08-19T20:42:05.846Z,9.52
2022-08-19T20:44:33.586Z,10.30
2022-08-19T20:47:03.823Z,7.93
2022-08-19T20:49:32.285Z,8.70
2022-08-19T20:52:00.391Z,9.90
2022-08-19T20:54:27.600Z,8.13
2022-08-19T20:56:54.634Z,9.15
2022-08-19T20:59:22.905Z,8.27
2022-08-19T21:01:51.906Z,9.90
2022-08-19T21:04:22.377Z,11.57
2022-08-19T21:06:51.032Z,9.48
2022-08-19T21:09:18.042Z,9.13
2022-08-19T21:11:45.535Z,11.52
2022-08-19T21:14:12.854Z,10.45
2022-08-19T21:16:39.565Z,10.77
2022-08-19T21:19:06.687Z,10.13
2022-08-19T21:21:34.980Z,11.10
2022-08-19T21:24:01.780Z,10.90
2022-08-19T21:26:28.450Z,11.50
2022-08-19T21:28:56.811Z,10.93
2022-08-19T21:31:24.569Z,10.07
2022-08-19T21:33:52.317Z,11.82
2022-08-19T21:36:19.440Z,11.02
2022-08-19T21:38:46.224Z,8.88
2022-08-19T21:41:13.356Z,11.15
2022-08-19T21:43:40.910Z,9.48
2022-08-19T21:46:09.566Z,8.65
2022-08-19T21:48:38.005Z,10.05
2022-08-19T21:51:07.705Z,14.27
2022-08-19T21:53:35.789Z,10.43
2022-08-19T21:56:06.383Z,11.18
2022-08-19T21:58:36.368Z,10.30
2022-08-19T22:01:06.158Z,9.55
2022-08-19T22:03:35.624Z,10.90
2022-08-19T22:06:05.535Z,11.18
2022-08-19T22:08:33.390Z,10.35
2022-08-19T22:11:03.922Z,11.02
2022-08-19T22:13:40.142Z,12.45
2022-08-19T22:16:10.762Z,16.02
2022-08-19T22:18:39.116Z,10.40
2022-08-19T22:23:47.028Z,15.30
2022-08-19T22:26:17.763Z,12.50
2022-08-19T22:28:46.673Z,10.40
2022-08-19T22:31:16.059Z,11.82
2022-08-19T22:33:47.783Z,10.93
2022-08-19T22:36:15.335Z,11.60
2022-08-19T22:38:43.738Z,11.48
2022-08-19T22:41:11.741Z,10.00
2022-08-19T22:43:40.875Z,11.63
2022-08-19T22:46:17.454Z,11.70
2022-08-19T22:48:47.705Z,11.23
2022-08-19T22:51:37.176Z,11.77
2022-08-19T22:54:04.760Z,11.38
2022-08-19T22:56:32.139Z,10.02
2022-08-19T22:58:58.849Z,15.77
2022-08-19T23:01:30.433Z,12.35
2022-08-19T23:04:00.225Z,16.00
2022-08-19T23:06:34.160Z,13.13
2022-08-19T23:09:07.293Z,12.98
2022-08-19T23:11:42.005Z,14.55
2022-08-19T23:14:10.340Z,17.02
2022-08-19T23:16:37.230Z,13.65
2022-08-19T23:19:04.985Z,13.13
2022-08-19T23:21:36.043Z,17.50
2022-08-19T23:24:03.065Z,15.27
2022-08-19T23:26:35.589Z,17.33
2022-08-19T23:29:23.713Z,18.10
2022-08-19T23:31:52.080Z,18.15
2022-08-19T23:34:18.822Z,16.02
2022-08-19T23:36:46.270Z,15.73
2022-08-19T23:39:13.057Z,17.23
2022-08-19T23:41:40.895Z,18.08
2022-08-19T23:44:14.408Z,17.50
2022-08-19T23:46:55.378Z,18.88
2022-08-19T23:49:23.564Z,18.48
2022-08-19T23:51:50.335Z,17.92
2022-08-19T23:54:16.948Z,18.05
2022-08-19T23:56:45.059Z,17.20
2022-08-19T23:59:12.117Z,17.88
